createdAt,value
2019-04-07T00:01:17.608Z,22.83
2019-04-07T00:03:46.098Z,21.73
2019-04-07T00:06:14.637Z,22.93
2019-04-07T00:08:43.256Z,21.80
2019-04-07T00:11:11.786Z,22.27
2019-04-07T00:13:40.253Z,22.60
2019-04-07T00:16:08.764Z,21.20
2019-04-07T00:18:37.383Z,21.80
2019-04-07T00:21:06.211Z,20.90
2019-04-07T00:23:34.888Z,22.57
2019-04-07T00:26:04.097Z,20.70
2019-04-07T00:28:32.760Z,22.77
2019-04-07T00:31:01.944Z,20.30
2019-04-07T00:33:31.131Z,20.60
2019-04-07T00:35:59.585Z,22.50
2019-04-07T00:38:28.365Z,21.40
2019-04-07T00:40:56.936Z,20.40
2019-04-07T00:43:25.385Z,21.10
2019-04-07T00:45:53.884Z,20.30
2019-04-07T00:48:22.430Z,21.57
2019-04-07T00:50:51.282Z,20.27
2019-04-07T00:53:20.044Z,20.37
2019-04-07T00:55:48.586Z,22.50
2019-04-07T00:58:17.050Z,19.73
2019-04-07T01:00:45.610Z,21.43
2019-04-07T01:03:14.072Z,21.53
2019-04-07T01:05:43.508Z,21.90
2019-04-07T01:08:12.092Z,20.73
2019-04-07T01:10:40.600Z,20.07
2019-04-07T01:13:09.270Z,21.00
2019-04-07T01:15:38.338Z,23.23
2019-04-07T01:18:06.870Z,21.00
2019-04-07T01:20:35.407Z,21.43
2019-04-07T01:23:03.970Z,21.07
2019-04-07T01:25:32.548Z,23.23
2019-04-07T01:28:00.979Z,22.53
2019-04-07T01:30:29.427Z,23.93
2019-04-07T01:32:57.864Z,21.77
2019-04-07T01:35:26.766Z,22.87
2019-04-07T01:37:56.096Z,22.77
2019-04-07T01:40:24.682Z,23.30
2019-04-07T01:43:01.070Z,23.83
2019-04-07T01:45:37.857Z,26.73
2019-04-07T01:48:16.826Z,23.20
2019-04-07T01:50:55.652Z,24.83
2019-04-07T01:53:42.240Z,21.60
2019-04-07T01:56:21.806Z,23.60
2019-04-07T01:59:01.507Z,23.10
2019-04-07T02:01:48.092Z,22.10
2019-04-07T02:04:21.927Z,23.03
2019-04-07T02:07:01.077Z,23.20
2019-04-07T02:09:31.629Z,22.70
2019-04-07T02:12:20.195Z,23.67
2019-04-07T02:14:53.310Z,23.20
2019-04-07T02:17:23.509Z,22.33
2019-04-07T02:20:08.610Z,21.70
2019-04-07T02:22:54.710Z,21.53
2019-04-07T02:25:27.595Z,23.37
2019-04-07T02:27:57.736Z,21.23
2019-04-07T02:30:46.152Z,21.67
2019-04-07T02:33:19.177Z,21.20
2019-04-07T02:36:15.732Z,21.67
2019-04-07T02:38:40.702Z,20.93
2019-04-07T02:41:13.916Z,21.00
2019-04-07T02:43:53.080Z,21.10
2019-04-07T02:46:27.014Z,19.80
2019-04-07T02:49:04.173Z,20.00
2019-04-07T02:51:40.610Z,20.73
2019-04-07T02:54:13.653Z,20.70
2019-04-07T02:56:47.300Z,20.10
2019-04-07T02:59:19.997Z,20.30
2019-04-07T03:01:50.045Z,20.43
2019-04-07T03:04:32.925Z,18.57
2019-04-07T03:07:03.173Z,21.60
2019-04-07T03:09:40.007Z,19.17
2019-04-07T03:12:27.586Z,19.60
2019-04-07T03:14:58.475Z,18.67
2019-04-07T03:17:47.774Z,18.90
2019-04-07T03:20:18.773Z,20.53
2019-04-07T03:22:49.073Z,20.57
2019-04-07T03:25:34.382Z,18.20
2019-04-07T03:28:21.428Z,20.90
2019-04-07T03:30:52.503Z,20.80
2019-04-07T03:33:35.108Z,20.77
2019-04-07T03:36:15.032Z,19.97
2019-04-07T03:38:46.223Z,21.07
2019-04-07T03:41:21.941Z,22.40
2019-04-07T03:43:59.149Z,20.40
2019-04-07T03:46:32.577Z,20.13
2019-04-07T03:49:09.324Z,21.37
2019-04-07T03:51:46.102Z,21.03
2019-04-07T03:54:25.271Z,21.97
2019-04-07T03:57:04.875Z,20.43
2019-04-07T03:59:35.283Z,20.53
2019-04-07T04:02:18.011Z,21.27
2019-04-07T04:04:48.774Z,21.50
2019-04-07T04:07:28.485Z,20.77
2019-04-07T04:09:51.773Z,22.13
2019-04-07T04:12:31.712Z,21.77
2019-04-07T04:15:15.102Z,22.87
2019-04-07T04:17:43.665Z,23.13
2019-04-07T04:20:13.009Z,22.47
2019-04-07T04:22:41.488Z,23.10
2019-04-07T04:25:10.697Z,23.40
2019-04-07T04:27:39.417Z,21.63
2019-04-07T04:30:10.278Z,22.60
2019-04-07T04:32:39.661Z,24.40
2019-04-07T04:35:09.251Z,21.73
2019-04-07T04:37:44.191Z,21.80
2019-04-07T04:40:09.853Z,20.17
2019-04-07T04:42:38.379Z,22.53
2019-04-07T04:45:08.408Z,22.53
2019-04-07T04:47:37.687Z,22.13
2019-04-07T04:50:09.309Z,23.27
2019-04-07T04:52:38.327Z,21.47
2019-04-07T04:55:07.293Z,22.67
2019-04-07T04:57:37.615Z,21.57
2019-04-07T05:00:09.181Z,23.30
2019-04-07T05:02:38.265Z,22.47
2019-04-07T05:05:09.571Z,20.90
2019-04-07T05:07:50.044Z,20.07
2019-04-07T05:10:08.805Z,22.43
2019-04-07T05:12:37.899Z,22.13
2019-04-07T05:15:07.667Z,22.80
2019-04-07T05:17:36.867Z,21.63
2019-04-07T05:20:06.953Z,21.80
2019-04-07T05:22:35.843Z,22.67
2019-04-07T05:25:07.037Z,23.63
2019-04-07T05:27:35.536Z,22.07
2019-04-07T05:30:06.700Z,23.37
2019-04-07T05:32:35.228Z,21.57
2019-04-07T05:35:04.413Z,22.80
2019-04-07T05:37:32.975Z,25.10
2019-04-07T05:40:02.908Z,22.90
2019-04-07T05:42:32.699Z,27.83
2019-04-07T05:45:01.383Z,26.00
2019-04-07T05:47:29.922Z,23.67
2019-04-07T05:49:59.647Z,25.43
2019-04-07T05:52:28.548Z,24.03
2019-04-07T05:54:58.788Z,26.43
2019-04-07T05:57:30.771Z,25.43
2019-04-07T05:59:57.512Z,25.00
2019-04-07T06:02:26.541Z,24.33
2019-04-07T06:04:58.479Z,25.90
2019-04-07T06:07:30.259Z,27.70
2019-04-07T06:09:56.401Z,26.73
2019-04-07T06:12:24.841Z,25.67
2019-04-07T06:14:53.451Z,30.37
2019-04-07T06:17:25.649Z,26.07
2019-04-07T06:19:52.692Z,27.37
2019-04-07T06:22:22.682Z,28.20
2019-04-07T06:24:52.049Z,28.97
2019-04-07T06:27:20.469Z,27.43
2019-04-07T06:29:48.927Z,27.63
2019-04-07T06:32:17.760Z,27.73
2019-04-07T06:34:49.011Z,29.27
2019-04-07T06:37:16.440Z,29.70
2019-04-07T06:39:47.014Z,28.43
2019-04-07T06:42:15.040Z,30.53
2019-04-07T06:44:43.545Z,28.23
2019-04-07T06:47:17.778Z,31.57
2019-04-07T06:49:57.414Z,30.93
2019-04-07T06:52:34.588Z,28.60
2019-04-07T06:55:24.615Z,29.03
2019-04-07T06:58:08.413Z,28.57
2019-04-07T07:00:41.803Z,27.97
2019-04-07T07:03:27.168Z,29.30
2019-04-07T07:06:15.105Z,28.43
2019-04-07T07:08:47.280Z,28.70
2019-04-07T07:11:29.266Z,30.07
2019-04-07T07:14:04.193Z,30.47
2019-04-07T07:16:34.984Z,28.73
2019-04-07T07:19:16.913Z,30.50
2019-04-07T07:21:52.457Z,27.77
2019-04-07T07:24:24.942Z,32.13
2019-04-07T07:26:51.069Z,29.40
2019-04-07T07:29:19.495Z,29.83
2019-04-07T07:31:51.952Z,28.93
2019-04-07T07:34:19.749Z,30.30
2019-04-07T07:36:52.299Z,30.60
2019-04-07T07:39:18.809Z,32.20
2019-04-07T07:41:50.372Z,32.80
2019-04-07T07:44:17.710Z,30.63
2019-04-07T07:46:50.413Z,31.47
2019-04-07T07:49:18.021Z,31.60
2019-04-07T07:51:48.538Z,33.03
2019-04-07T07:54:17.292Z,31.27
2019-04-07T07:56:48.538Z,35.47
2019-04-07T07:59:16.601Z,31.67
2019-04-07T08:01:46.998Z,29.63
2019-04-07T08:04:16.109Z,30.20
2019-04-07T08:06:44.843Z,27.20
2019-04-07T08:09:15.462Z,27.40
2019-04-07T08:11:43.568Z,27.00
2019-04-07T08:14:15.514Z,24.90
2019-04-07T08:16:42.507Z,23.43
2019-04-07T08:19:11.060Z,22.73
2019-04-07T08:21:40.392Z,23.73
2019-04-07T08:24:10.175Z,22.07
2019-04-07T08:26:39.230Z,20.27
2019-04-07T08:29:08.742Z,18.30
2019-04-07T08:31:37.349Z,16.63
2019-04-07T08:34:05.758Z,16.13
2019-04-07T08:36:34.783Z,13.60
2019-04-07T08:39:06.131Z,14.50
2019-04-07T08:41:39.703Z,14.83
2019-04-07T08:44:06.251Z,13.27
2019-04-07T08:46:39.840Z,15.03
2019-04-07T08:49:04.930Z,16.67
2019-04-07T08:51:33.638Z,19.73
2019-04-07T08:54:04.503Z,19.73
2019-04-07T08:56:32.933Z,22.20
2019-04-07T08:59:01.449Z,20.27
2019-04-07T09:01:31.434Z,17.30
2019-04-07T09:04:00.234Z,20.57
2019-04-07T09:06:29.619Z,19.57
2019-04-07T09:08:58.821Z,19.80
2019-04-07T09:11:28.353Z,17.47
2019-04-07T09:13:57.091Z,17.07
2019-04-07T09:16:33.690Z,17.97
2019-04-07T09:19:13.727Z,18.37
2019-04-07T09:21:47.577Z,17.60
2019-04-07T09:24:34.247Z,18.40
2019-04-07T09:27:19.460Z,18.07
2019-04-07T09:30:01.158Z,17.80
2019-04-07T09:32:34.646Z,18.30
2019-04-07T09:35:24.872Z,18.30
2019-04-07T09:37:54.884Z,15.83
2019-04-07T09:40:31.842Z,16.83
2019-04-07T09:43:02.103Z,14.90
2019-04-07T09:45:38.539Z,15.20
2019-04-07T09:48:07.561Z,15.93
2019-04-07T09:50:43.842Z,14.40
2019-04-07T09:53:19.401Z,12.80
2019-04-07T09:55:49.127Z,15.00
2019-04-07T09:58:19.307Z,16.03
2019-04-07T10:00:51.267Z,15.43
2019-04-07T10:03:39.476Z,18.73
2019-04-07T10:06:26.008Z,15.80
2019-04-07T10:09:12.693Z,17.20
2019-04-07T10:11:49.500Z,14.47
2019-04-07T10:14:25.838Z,13.20
2019-04-07T10:16:59.483Z,12.40
2019-04-07T10:19:46.956Z,12.17
2019-04-07T10:22:21.194Z,13.90
2019-04-07T10:24:51.751Z,16.17
2019-04-07T10:27:34.003Z,18.90
2019-04-07T10:30:10.039Z,21.03
2019-04-07T10:32:57.276Z,16.60
2019-04-07T10:35:36.463Z,16.50
2019-04-07T10:38:10.012Z,20.93
2019-04-07T10:40:52.355Z,22.23
2019-04-07T10:43:28.896Z,22.83
2019-04-07T10:46:04.569Z,21.97
2019-04-07T10:48:51.093Z,20.43
2019-04-07T10:51:30.791Z,20.57
2019-04-07T10:54:16.100Z,19.10
2019-04-07T10:56:49.824Z,18.77
2019-04-07T10:59:20.939Z,17.23
2019-04-07T11:02:08.270Z,18.30
2019-04-07T11:04:41.350Z,18.50
2019-04-07T11:07:23.828Z,18.07
2019-04-07T11:10:10.207Z,16.60
2019-04-07T11:12:57.164Z,15.60
2019-04-07T11:15:27.426Z,14.50
2019-04-07T11:18:14.231Z,13.40
2019-04-07T11:20:50.926Z,12.50
2019-04-07T11:23:24.178Z,9.33
2019-04-07T11:25:57.639Z,10.40
2019-04-07T11:28:28.984Z,11.23
2019-04-07T11:31:05.670Z,10.70
2019-04-07T11:33:39.517Z,11.50
2019-04-07T11:36:11.285Z,11.43
2019-04-07T11:38:58.498Z,10.93
2019-04-07T11:41:45.980Z,11.10
2019-04-07T11:44:32.313Z,11.00
2019-04-07T11:47:05.451Z,9.57
2019-04-07T11:49:43.898Z,9.83
2019-04-07T11:52:23.512Z,12.80
2019-04-07T11:55:08.615Z,10.20
2019-04-07T11:57:44.766Z,10.70
2019-04-07T12:00:16.458Z,10.03
2019-04-07T12:02:53.557Z,10.37
2019-04-07T12:05:29.750Z,10.03
2019-04-07T12:08:00.630Z,8.47
2019-04-07T12:10:56.168Z,7.47
2019-04-07T12:13:18.956Z,7.30
2019-04-07T12:16:05.652Z,7.07
2019-04-07T12:18:41.696Z,7.07
2019-04-07T12:21:21.749Z,7.33
2019-04-07T12:24:03.226Z,8.40
2019-04-07T12:26:46.291Z,6.27
2019-04-07T12:29:25.470Z,8.27
2019-04-07T12:31:58.364Z,7.00
2019-04-07T12:34:44.022Z,7.60
2019-04-07T12:37:30.487Z,8.10
2019-04-07T12:40:06.471Z,7.47
2019-04-07T12:42:53.433Z,9.20
2019-04-07T12:45:41.779Z,9.93
2019-04-07T12:48:17.927Z,8.73
2019-04-07T12:50:54.135Z,10.07
2019-04-07T12:53:33.510Z,11.10
2019-04-07T12:56:02.515Z,10.30
2019-04-07T12:58:32.833Z,10.50
2019-04-07T13:01:15.297Z,11.23
2019-04-07T13:03:40.870Z,10.47
2019-04-07T13:06:17.842Z,8.60
2019-04-07T13:08:49.026Z,9.30
2019-04-07T13:11:26.502Z,8.93
2019-04-07T13:14:09.881Z,7.53
2019-04-07T13:16:42.705Z,7.70
2019-04-07T13:19:18.855Z,8.37
2019-04-07T13:21:49.063Z,8.50
2019-04-07T13:24:30.255Z,9.40
2019-04-07T13:26:52.025Z,8.47
2019-04-07T13:29:40.105Z,9.67
2019-04-07T13:32:09.395Z,10.13
2019-04-07T13:34:41.942Z,8.50
2019-04-07T13:37:15.630Z,10.03
2019-04-07T13:39:51.402Z,9.47
2019-04-07T13:42:23.050Z,8.80
2019-04-07T13:45:05.446Z,9.77
2019-04-07T13:47:52.479Z,8.10
2019-04-07T13:50:31.926Z,9.20
2019-04-07T13:53:02.334Z,8.80
2019-04-07T13:55:48.711Z,8.33
2019-04-07T13:58:19.621Z,9.30
2019-04-07T14:01:05.141Z,9.27
2019-04-07T14:03:41.734Z,8.47
2019-04-07T14:06:31.536Z,8.83
2019-04-07T14:09:02.401Z,8.43
2019-04-07T14:11:32.853Z,7.70
2019-04-07T14:14:19.564Z,8.83
2019-04-07T14:16:59.438Z,10.23
2019-04-07T14:19:29.930Z,8.40
2019-04-07T14:22:17.543Z,7.80
2019-04-07T14:24:48.310Z,7.80
2019-04-07T14:27:27.634Z,8.60
2019-04-07T14:30:07.774Z,7.53
2019-04-07T14:32:40.544Z,9.43
2019-04-07T14:35:26.952Z,6.70
2019-04-07T14:38:03.708Z,9.37
2019-04-07T14:40:39.933Z,8.10
2019-04-07T14:43:28.181Z,8.10
2019-04-07T14:46:01.745Z,7.80
2019-04-07T14:48:32.563Z,8.97
2019-04-07T14:51:11.720Z,7.27
2019-04-07T14:53:42.064Z,7.10
2019-04-07T14:56:18.614Z,10.30
2019-04-07T14:58:52.220Z,7.20
2019-04-07T15:01:26.456Z,7.63
2019-04-07T15:03:55.645Z,6.67
2019-04-07T15:06:29.209Z,6.57
2019-04-07T15:08:56.385Z,6.83
2019-04-07T15:11:27.004Z,6.40
2019-04-07T15:13:57.905Z,6.33
2019-04-07T15:16:26.364Z,6.57
2019-04-07T15:18:55.137Z,6.57
2019-04-07T15:21:23.958Z,6.50
2019-04-07T15:23:52.970Z,8.30
2019-04-07T15:26:22.104Z,8.27
2019-04-07T15:28:50.709Z,7.37
2019-04-07T15:31:20.318Z,7.60
2019-04-07T15:33:51.603Z,7.53
2019-04-07T15:36:19.740Z,8.03
2019-04-07T15:38:48.605Z,7.13
2019-04-07T15:41:19.126Z,7.20
2019-04-07T15:43:47.509Z,7.10
2019-04-07T15:46:18.079Z,7.40
2019-04-07T15:48:46.560Z,7.40
2019-04-07T15:51:17.578Z,6.30
2019-04-07T15:53:50.355Z,6.47
2019-04-07T15:56:18.427Z,6.87
2019-04-07T15:58:46.487Z,5.60
2019-04-07T16:01:15.049Z,4.73
2019-04-07T16:03:47.707Z,5.23
2019-04-07T16:06:17.432Z,4.80
2019-04-07T16:08:46.841Z,4.80
2019-04-07T16:11:16.634Z,5.33
2019-04-07T16:13:46.284Z,5.53
2019-04-07T16:16:14.945Z,5.07
2019-04-07T16:18:45.328Z,5.23
2019-04-07T16:21:14.307Z,5.23
2019-04-07T16:23:43.027Z,3.67
2019-04-07T16:26:11.873Z,4.13
2019-04-07T16:28:43.261Z,4.17
2019-04-07T16:31:10.628Z,4.40
2019-04-07T16:33:39.798Z,4.43
2019-04-07T16:36:08.675Z,4.20
2019-04-07T16:38:37.290Z,4.50
2019-04-07T16:41:06.568Z,4.80
2019-04-07T16:43:37.674Z,4.20
2019-04-07T16:46:05.603Z,4.53
2019-04-07T16:48:38.670Z,4.13
2019-04-07T16:51:04.806Z,4.20
2019-04-07T16:53:36.508Z,4.40
2019-04-07T16:56:04.104Z,3.80
2019-04-07T16:58:35.322Z,4.10
2019-04-07T17:01:02.999Z,4.07
2019-04-07T17:03:31.698Z,4.80
2019-04-07T17:06:01.635Z,4.20
2019-04-07T17:08:30.508Z,4.70
2019-04-07T17:10:59.571Z,5.20
2019-04-07T17:13:37.065Z,4.40
2019-04-07T17:15:59.933Z,4.90
2019-04-07T17:18:43.200Z,4.87
2019-04-07T17:21:16.241Z,4.37
2019-04-07T17:23:45.494Z,4.43
2019-04-07T17:26:14.573Z,5.13
2019-04-07T17:28:45.219Z,4.57
2019-04-07T17:31:14.315Z,4.07
2019-04-07T17:33:43.251Z,4.47
2019-04-07T17:36:15.347Z,5.40
2019-04-07T17:39:05.257Z,6.00
2019-04-07T17:41:32.946Z,5.60
2019-04-07T17:44:04.440Z,7.03
2019-04-07T17:46:55.951Z,8.50
2019-04-07T17:49:30.914Z,7.40
2019-04-07T17:52:24.615Z,9.10
2019-04-07T17:55:02.840Z,9.47
2019-04-07T17:57:37.139Z,9.67
2019-04-07T18:00:21.727Z,9.73
2019-04-07T18:03:04.543Z,9.13
2019-04-07T18:05:38.732Z,10.90
2019-04-07T18:08:15.826Z,11.00
2019-04-07T18:10:51.743Z,12.50
2019-04-07T18:13:43.448Z,12.10
2019-04-07T18:16:06.317Z,11.97
2019-04-07T18:18:39.579Z,12.90
2019-04-07T18:21:15.418Z,12.27
2019-04-07T18:23:44.461Z,12.10
2019-04-07T18:26:27.255Z,12.10
2019-04-07T18:29:00.584Z,11.30
2019-04-07T18:31:43.497Z,14.10
2019-04-07T18:34:14.273Z,13.07
2019-04-07T18:36:53.135Z,12.57
2019-04-07T18:39:39.782Z,13.00
2019-04-07T18:42:19.599Z,12.73
2019-04-07T18:45:05.278Z,14.73
2019-04-07T18:47:41.692Z,14.53
2019-04-07T18:50:27.489Z,16.30
2019-04-07T18:52:58.402Z,17.53
2019-04-07T18:55:38.991Z,14.50
2019-04-07T18:58:26.665Z,16.33
2019-04-07T19:00:57.623Z,17.13
2019-04-07T19:03:37.378Z,16.50
2019-04-07T19:06:08.694Z,16.07
2019-04-07T19:08:39.160Z,17.63
2019-04-07T19:11:15.967Z,16.60
2019-04-07T19:14:01.806Z,14.67
2019-04-07T19:16:24.642Z,17.20
2019-04-07T19:19:00.699Z,16.63
2019-04-07T19:21:38.759Z,17.50
2019-04-07T19:24:25.083Z,16.57
2019-04-07T19:26:56.225Z,15.70
2019-04-07T19:29:30.086Z,17.57
2019-04-07T19:32:03.791Z,17.60
2019-04-07T19:34:34.503Z,16.50
2019-04-07T19:37:17.272Z,16.53
2019-04-07T19:40:02.910Z,16.20
2019-04-07T19:42:37.681Z,16.53
2019-04-07T19:45:25.426Z,16.73
2019-04-07T19:47:55.165Z,17.40
2019-04-07T19:50:40.593Z,16.00
2019-04-07T19:53:31.031Z,15.47
2019-04-07T19:56:02.506Z,15.93
2019-04-07T19:58:40.896Z,16.27
2019-04-07T20:01:10.930Z,13.93
2019-04-07T20:03:53.921Z,14.57
2019-04-07T20:06:30.298Z,14.57
2019-04-07T20:09:19.279Z,18.33
2019-04-07T20:12:06.451Z,15.30
2019-04-07T20:14:49.325Z,15.40
2019-04-07T20:17:19.719Z,16.43
2019-04-07T20:19:48.679Z,15.50
2019-04-07T20:22:25.912Z,16.70
2019-04-07T20:24:56.649Z,14.30
2019-04-07T20:27:29.840Z,15.43
2019-04-07T20:30:00.534Z,14.93
2019-04-07T20:32:47.743Z,15.93
2019-04-07T20:35:28.422Z,14.40
2019-04-07T20:38:07.959Z,13.83
2019-04-07T20:40:43.922Z,14.47
2019-04-07T20:43:25.411Z,13.17
2019-04-07T20:46:13.633Z,13.97
2019-04-07T20:49:00.470Z,14.37
2019-04-07T20:51:50.671Z,15.20
2019-04-07T20:54:19.543Z,14.20
2019-04-07T20:56:49.864Z,13.77
2019-04-07T20:59:20.475Z,15.23
2019-04-07T21:02:12.526Z,14.73
2019-04-07T21:05:00.496Z,13.43
2019-04-07T21:07:45.973Z,14.20
2019-04-07T21:10:19.032Z,14.13
2019-04-07T21:13:05.435Z,13.43
2019-04-07T21:15:47.770Z,13.23
2019-04-07T21:18:21.457Z,14.20
2019-04-07T21:20:57.719Z,14.73
2019-04-07T21:23:39.780Z,13.90
2019-04-07T21:26:15.810Z,12.00
2019-04-07T21:28:45.884Z,15.47
2019-04-07T21:31:28.142Z,11.47
2019-04-07T21:34:07.479Z,12.70
2019-04-07T21:36:46.365Z,12.33
2019-04-07T21:39:21.967Z,11.07
2019-04-07T21:42:07.445Z,12.63
2019-04-07T21:44:40.457Z,11.60
2019-04-07T21:47:10.543Z,12.20
2019-04-07T21:49:40.669Z,12.23
2019-04-07T21:52:16.147Z,12.33
2019-04-07T21:55:00.197Z,12.40
2019-04-07T21:57:30.293Z,11.97
2019-04-07T22:00:16.658Z,10.90
2019-04-07T22:03:01.708Z,12.07
2019-04-07T22:05:32.794Z,11.60
2019-04-07T22:08:11.670Z,11.63
2019-04-07T22:10:36.217Z,12.80
2019-04-07T22:13:06.656Z,11.53
2019-04-07T22:15:43.048Z,13.10
2019-04-07T22:18:08.528Z,11.63
2019-04-07T22:20:35.337Z,10.97
2019-04-07T22:23:04.379Z,11.07
2019-04-07T22:25:38.369Z,11.27
2019-04-07T22:28:07.671Z,11.57
2019-04-07T22:30:39.912Z,10.63
2019-04-07T22:33:06.525Z,11.53
2019-04-07T22:35:38.317Z,11.30
2019-04-07T22:38:05.250Z,9.53
2019-04-07T22:40:37.532Z,8.80
2019-04-07T22:43:04.244Z,11.50
2019-04-07T22:45:32.677Z,13.37
2019-04-07T22:48:01.355Z,14.50
2019-04-07T22:50:35.479Z,13.70
2019-04-07T22:53:02.445Z,14.00
2019-04-07T22:55:31.222Z,14.30
2019-04-07T22:57:59.890Z,13.73
2019-04-07T23:00:28.804Z,13.53
2019-04-07T23:02:57.348Z,13.43
2019-04-07T23:05:25.786Z,16.03
2019-04-07T23:07:54.453Z,15.17
2019-04-07T23:10:23.262Z,14.47
2019-04-07T23:12:51.836Z,13.83
2019-04-07T23:15:20.772Z,13.93
2019-04-07T23:17:49.388Z,10.53
2019-04-07T23:20:17.983Z,9.07
2019-04-07T23:22:46.701Z,9.20
2019-04-07T23:25:15.549Z,8.67
2019-04-07T23:27:44.069Z,7.53
2019-04-07T23:30:13.357Z,8.63
2019-04-07T23:32:41.829Z,7.47
2019-04-07T23:35:10.465Z,5.83
2019-04-07T23:37:39.078Z,5.70
2019-04-07T23:40:08.644Z,5.67
2019-04-07T23:42:37.088Z,6.40
2019-04-07T23:45:08.225Z,6.10
2019-04-07T23:47:36.819Z,6.03
2019-04-07T23:50:07.090Z,5.70
2019-04-07T23:52:35.660Z,4.97
2019-04-07T23:55:04.954Z,5.50
2019-04-07T23:57:33.386Z,4.27
